sensor_id;sensor_type;location;lat;lon;timestamp;pressure;altitude;pressure_sealevel;temperature;humidity
17072;BME280;7731;50.720;6.912;2023-02-17T00:02:10;100640.66;;;9.86;100.00
17072;BME280;7731;50.720;6.912;2023-02-17T00:04:44;100642.72;;;9.76;100.00
17072;BME280;7731;50.720;6.912;2023-02-17T00:07:15;100642.78;;;9.74;100.00
17072;BME280;7731;50.720;6.912;2023-02-17T00:09:46;100638.53;;;9.73;100.00
17072;BME280;7731;50.720;6.912;2023-02-17T00:12:16;100635.56;;;9.62;100.00
17072;BME280;7731;50.720;6.912;2023-02-17T00:14:46;100631.94;;;9.68;100.00
17072;BME280;7731;50.720;6.912;2023-02-17T00:17:17;100628.09;;;9.56;100.00
17072;BME280;7731;50.720;6.912;2023-02-17T00:19:52;100623.69;;;9.59;100.00
17072;BME280;7731;50.720;6.912;2023-02-17T00:22:22;100622.72;;;9.62;100.00
17072;BME280;7731;50.720;6.912;2023-02-17T00:24:53;100620.09;;;9.63;100.00
17072;BME280;7731;50.720;6.912;2023-02-17T00:27:23;100618.94;;;9.72;100.00
17072;BME280;7731;50.720;6.912;2023-02-17T00:29:53;100610.22;;;9.76;100.00
17072;BME280;7731;50.720;6.912;2023-02-17T00:32:26;100609.31;;;9.77;100.00
17072;BME280;7731;50.720;6.912;2023-02-17T00:34:58;100600.44;;;9.86;100.00
17072;BME280;7731;50.720;6.912;2023-02-17T00:37:28;100598.94;;;9.80;100.00
17072;BME280;7731;50.720;6.912;2023-02-17T00:39:58;100601.03;;;9.71;100.00
17072;BME280;7731;50.720;6.912;2023-02-17T00:42:29;100591.59;;;9.71;100.00
17072;BME280;7731;50.720;6.912;2023-02-17T00:44:59;100593.09;;;9.77;100.00
17072;BME280;7731;50.720;6.912;2023-02-17T00:47:29;100594.31;;;9.89;100.00
17072;BME280;7731;50.720;6.912;2023-02-17T00:50:02;100599.81;;;9.79;100.00
17072;BME280;7731;50.720;6.912;2023-02-17T00:52:32;100598.53;;;9.69;100.00
17072;BME280;7731;50.720;6.912;2023-02-17T00:55:03;100595.03;;;9.70;100.00
17072;BME280;7731;50.720;6.912;2023-02-17T00:57:33;100596.03;;;9.68;100.00
17072;BME280;7731;50.720;6.912;2023-02-17T01:00:06;100586.16;;;9.57;100.00
17072;BME280;7731;50.720;6.912;2023-02-17T01:02:37;100596.50;;;9.77;100.00
17072;BME280;7731;50.720;6.912;2023-02-17T01:05:10;100591.59;;;9.71;100.00
17072;BME280;7731;50.720;6.912;2023-02-17T01:07:42;100596.59;;;9.74;100.00
17072;BME280;7731;50.720;6.912;2023-02-17T01:10:13;100589.16;;;9.68;100.00
17072;BME280;7731;50.720;6.912;2023-02-17T01:12:45;100598.66;;;9.66;100.00
17072;BME280;7731;50.720;6.912;2023-02-17T01:15:16;100590.72;;;9.72;100.00
17072;BME280;7731;50.720;6.912;2023-02-17T01:17:46;100580.16;;;9.80;100.00
17072;BME280;7731;50.720;6.912;2023-02-17T01:20:19;100578.94;;;9.67;100.00
17072;BME280;7731;50.720;6.912;2023-02-17T01:22:50;100579.88;;;9.64;100.00
17072;BME280;7731;50.720;6.912;2023-02-17T01:25:20;100581.56;;;9.65;100.00
17072;BME280;7731;50.720;6.912;2023-02-17T01:27:50;100567.75;;;9.69;100.00
17072;BME280;7731;50.720;6.912;2023-02-17T01:30:21;100556.13;;;9.81;100.00
17072;BME280;7731;50.720;6.912;2023-02-17T01:32:51;100544.41;;;9.75;100.00
17072;BME280;7731;50.720;6.912;2023-02-17T01:35:25;100547.22;;;9.69;100.00
17072;BME280;7731;50.720;6.912;2023-02-17T01:37:55;100550.44;;;9.74;100.00
17072;BME280;7731;50.720;6.912;2023-02-17T01:40:25;100547.28;;;9.68;100.00
17072;BME280;7731;50.720;6.912;2023-02-17T01:42:56;100541.34;;;9.65;100.00
17072;BME280;7731;50.720;6.912;2023-02-17T01:45:39;100538.72;;;9.67;100.00
17072;BME280;7731;50.720;6.912;2023-02-17T01:48:14;100538.44;;;9.53;100.00
17072;BME280;7731;50.720;6.912;2023-02-17T01:50:54;100535.41;;;9.65;100.00
17072;BME280;7731;50.720;6.912;2023-02-17T01:53:34;100524.66;;;9.77;100.00
17072;BME280;7731;50.720;6.912;2023-02-17T01:56:07;100521.06;;;9.81;100.00
17072;BME280;7731;50.720;6.912;2023-02-17T01:58:43;100519.38;;;9.80;100.00
17072;BME280;7731;50.720;6.912;2023-02-17T02:01:16;100521.56;;;9.69;100.00
17072;BME280;7731;50.720;6.912;2023-02-17T02:03:48;100516.44;;;9.69;100.00
17072;BME280;7731;50.720;6.912;2023-02-17T02:06:25;100511.28;;;9.69;100.00
17072;BME280;7731;50.720;6.912;2023-02-17T02:09:02;100508.34;;;9.56;100.00
17072;BME280;7731;50.720;6.912;2023-02-17T02:11:34;100514.63;;;9.71;100.00
17072;BME280;7731;50.720;6.912;2023-02-17T02:14:07;100509.31;;;9.76;100.00
17072;BME280;7731;50.720;6.912;2023-02-17T02:16:51;100508.00;;;9.88;100.00
17072;BME280;7731;50.720;6.912;2023-02-17T02:19:49;100513.56;;;9.77;100.00
17072;BME280;7731;50.720;6.912;2023-02-17T02:22:57;100514.69;;;10.12;100.00
17072;BME280;7731;50.720;6.912;2023-02-17T02:26:03;100509.81;;;10.06;100.00
17072;BME280;7731;50.720;6.912;2023-02-17T02:28:58;100508.75;;;10.10;100.00
17072;BME280;7731;50.720;6.912;2023-02-17T02:31:44;100515.44;;;10.14;100.00
17072;BME280;7731;50.720;6.912;2023-02-17T02:34:26;100508.75;;;10.10;100.00
17072;BME280;7731;50.720;6.912;2023-02-17T02:37:05;100503.91;;;10.25;100.00
17072;BME280;7731;50.720;6.912;2023-02-17T02:39:44;100509.69;;;10.09;100.00
17072;BME280;7731;50.720;6.912;2023-02-17T02:42:19;100504.03;;;10.22;100.00
17072;BME280;7731;50.720;6.912;2023-02-17T02:44:50;100513.75;;;10.13;100.00
17072;BME280;7731;50.720;6.912;2023-02-17T02:47:45;100516.06;;;10.19;100.00
17072;BME280;7731;50.720;6.912;2023-02-17T02:50:24;100513.63;;;10.16;100.00
17072;BME280;7731;50.720;6.912;2023-02-17T02:53:29;100501.41;;;10.23;100.00
17072;BME280;7731;50.720;6.912;2023-02-17T02:56:14;100507.88;;;10.11;100.00
17072;BME280;7731;50.720;6.912;2023-02-17T02:58:57;100508.88;;;10.07;100.00
17072;BME280;7731;50.720;6.912;2023-02-17T03:01:38;100506.31;;;10.07;100.00
17072;BME280;7731;50.720;6.912;2023-02-17T03:04:18;100504.66;;;10.06;100.00
17072;BME280;7731;50.720;6.912;2023-02-17T03:07:12;100494.66;;;10.00;100.00
17072;BME280;7731;50.720;6.912;2023-02-17T03:09:48;100484.19;;;10.05;100.00
17072;BME280;7731;50.720;6.912;2023-02-17T03:12:21;100483.34;;;10.04;100.00
17072;BME280;7731;50.720;6.912;2023-02-17T03:14:58;100489.28;;;10.06;100.00
17072;BME280;7731;50.720;6.912;2023-02-17T03:17:31;100482.84;;;9.96;100.00
17072;BME280;7731;50.720;6.912;2023-02-17T03:20:03;100474.88;;;9.81;100.00
17072;BME280;7731;50.720;6.912;2023-02-17T03:22:41;100477.50;;;9.80;100.00
17072;BME280;7731;50.720;6.912;2023-02-17T03:25:13;100471.22;;;9.87;100.00
17072;BME280;7731;50.720;6.912;2023-02-17T03:27:43;100469.63;;;9.85;100.00
17072;BME280;7731;50.720;6.912;2023-02-17T03:30:17;100458.00;;;9.76;100.00
17072;BME280;7731;50.720;6.912;2023-02-17T03:32:49;100469.34;;;9.70;100.00
17072;BME280;7731;50.720;6.912;2023-02-17T03:35:22;100471.31;;;9.63;100.00
17072;BME280;7731;50.720;6.912;2023-02-17T03:37:55;100476.78;;;9.76;100.00
17072;BME280;7731;50.720;6.912;2023-02-17T03:40:25;100469.50;;;9.88;100.00
17072;BME280;7731;50.720;6.912;2023-02-17T03:42:56;100465.88;;;9.92;100.00
17072;BME280;7731;50.720;6.912;2023-02-17T03:45:26;100466.19;;;9.84;100.00
17072;BME280;7731;50.720;6.912;2023-02-17T03:47:57;100460.50;;;9.98;100.00
17072;BME280;7731;50.720;6.912;2023-02-17T03:50:27;100463.84;;;10.00;100.00
17072;BME280;7731;50.720;6.912;2023-02-17T03:53:03;100467.94;;;9.83;100.00
17072;BME280;7731;50.720;6.912;2023-02-17T03:55:33;100471.16;;;9.89;100.00
17072;BME280;7731;50.720;6.912;2023-02-17T03:58:04;100466.25;;;9.82;100.00
17072;BME280;7731;50.720;6.912;2023-02-17T04:00:34;100462.81;;;9.83;100.00
17072;BME280;7731;50.720;6.912;2023-02-17T04:03:05;100467.81;;;9.87;100.00
17072;BME280;7731;50.720;6.912;2023-02-17T04:05:35;100470.81;;;9.76;100.00
17072;BME280;7731;50.720;6.912;2023-02-17T04:08:08;100464.88;;;9.75;100.00
17072;BME280;7731;50.720;6.912;2023-02-17T04:10:38;100470.56;;;9.82;100.00
17072;BME280;7731;50.720;6.912;2023-02-17T04:13:08;100477.97;;;9.90;100.00
17072;BME280;7731;50.720;6.912;2023-02-17T04:15:40;100473.97;;;9.82;100.00
17072;BME280;7731;50.720;6.912;2023-02-17T04:18:10;100472.94;;;9.87;100.00
17072;BME280;7731;50.720;6.912;2023-02-17T04:20:41;100472.50;;;9.77;100.00
17072;BME280;7731;50.720;6.912;2023-02-17T04:23:15;100471.78;;;9.73;100.00
17072;BME280;7731;50.720;6.912;2023-02-17T04:25:52;100473.19;;;9.80;100.00
17072;BME280;7731;50.720;6.912;2023-02-17T04:28:22;100478.22;;;9.83;100.00
17072;BME280;7731;50.720;6.912;2023-02-17T04:30:52;100480.97;;;9.79;100.00
17072;BME280;7731;50.720;6.912;2023-02-17T04:33:25;100476.41;;;9.86;100.00
17072;BME280;7731;50.720;6.912;2023-02-17T04:35:57;100483.47;;;9.80;100.00
17072;BME280;7731;50.720;6.912;2023-02-17T04:38:32;100476.91;;;9.73;100.00
17072;BME280;7731;50.720;6.912;2023-02-17T04:41:03;100478.91;;;9.87;100.00
17072;BME280;7731;50.720;6.912;2023-02-17T04:43:34;100478.09;;;9.87;100.00
17072;BME280;7731;50.720;6.912;2023-02-17T04:46:04;100468.56;;;9.68;100.00
17072;BME280;7731;50.720;6.912;2023-02-17T04:48:35;100464.63;;;9.81;100.00
17072;BME280;7731;50.720;6.912;2023-02-17T04:51:05;100474.09;;;9.79;100.00
17072;BME280;7731;50.720;6.912;2023-02-17T04:53:38;100469.50;;;9.88;100.00
17072;BME280;7731;50.720;6.912;2023-02-17T04:56:08;100471.91;;;9.70;100.00
17072;BME280;7731;50.720;6.912;2023-02-17T04:58:38;100474.88;;;9.81;100.00
17072;BME280;7731;50.720;6.912;2023-02-17T05:01:08;100476.53;;;9.82;100.00
17072;BME280;7731;50.720;6.912;2023-02-17T05:03:38;100468.00;;;9.82;100.00
17072;BME280;7731;50.720;6.912;2023-02-17T05:06:08;100459.88;;;9.72;100.00
17072;BME280;7731;50.720;6.912;2023-02-17T05:08:41;100461.63;;;9.70;100.00
17072;BME280;7731;50.720;6.912;2023-02-17T05:11:14;100468.19;;;9.77;100.00
17072;BME280;7731;50.720;6.912;2023-02-17T05:13:46;100475.88;;;9.77;100.00
17072;BME280;7731;50.720;6.912;2023-02-17T05:16:17;100468.50;;;9.90;100.00
17072;BME280;7731;50.720;6.912;2023-02-17T05:18:47;100475.00;;;9.78;100.00
17072;BME280;7731;50.720;6.912;2023-02-17T05:21:17;100464.69;;;10.00;100.00
17072;BME280;7731;50.720;6.912;2023-02-17T05:23:50;100468.56;;;9.89;100.00
17072;BME280;7731;50.720;6.912;2023-02-17T05:26:20;100473.72;;;9.89;100.00
17072;BME280;7731;50.720;6.912;2023-02-17T05:28:50;100468.19;;;9.98;100.00
17072;BME280;7731;50.720;6.912;2023-02-17T05:31:20;100476.81;;;9.97;100.00
17072;BME280;7731;50.720;6.912;2023-02-17T05:33:53;100479.75;;;10.08;100.00
17072;BME280;7731;50.720;6.912;2023-02-17T05:36:23;100476.66;;;10.21;100.00
17072;BME280;7731;50.720;6.912;2023-02-17T05:38:56;100475.00;;;10.19;100.00
17072;BME280;7731;50.720;6.912;2023-02-17T05:41:26;100475.19;;;10.15;100.00
17072;BME280;7731;50.720;6.912;2023-02-17T05:43:57;100484.81;;;10.10;100.00
17072;BME280;7731;50.720;6.912;2023-02-17T05:46:27;100475.91;;;10.18;100.00
17072;BME280;7731;50.720;6.912;2023-02-17T05:48:58;100466.28;;;10.03;100.00
17072;BME280;7731;50.720;6.912;2023-02-17T05:51:28;100468.59;;;10.09;100.00
17072;BME280;7731;50.720;6.912;2023-02-17T05:54:01;100463.47;;;10.09;100.00
17072;BME280;7731;50.720;6.912;2023-02-17T05:56:32;100464.47;;;10.05;100.00
17072;BME280;7731;50.720;6.912;2023-02-17T05:59:02;100457.34;;;10.12;100.00
17072;BME280;7731;50.720;6.912;2023-02-17T06:01:36;100454.59;;;10.16;100.00
17072;BME280;7731;50.720;6.912;2023-02-17T06:04:06;100447.94;;;10.12;100.00
17072;BME280;7731;50.720;6.912;2023-02-17T06:06:39;100455.22;;;10.01;100.00
17072;BME280;7731;50.720;6.912;2023-02-17T06:09:11;100441.50;;;10.02;100.00
17072;BME280;7731;50.720;6.912;2023-02-17T06:11:42;100449.72;;;10.10;100.00
17072;BME280;7731;50.720;6.912;2023-02-17T06:14:12;100448.22;;;10.25;100.00
17072;BME280;7731;50.720;6.912;2023-02-17T06:16:42;100446.59;;;10.04;100.00
17072;BME280;7731;50.720;6.912;2023-02-17T06:19:12;100448.44;;;10.00;100.00
17072;BME280;7731;50.720;6.912;2023-02-17T06:21:42;100459.97;;;10.10;100.00
17072;BME280;7731;50.720;6.912;2023-02-17T06:24:15;100452.47;;;10.06;100.00
17072;BME280;7731;50.720;6.912;2023-02-17T06:26:45;100451.56;;;10.27;100.00
17072;BME280;7731;50.720;6.912;2023-02-17T06:29:15;100454.19;;;10.26;100.00
17072;BME280;7731;50.720;6.912;2023-02-17T06:31:45;100463.38;;;10.31;100.00
17072;BME280;7731;50.720;6.912;2023-02-17T06:34:16;100467.81;;;10.28;100.00
17072;BME280;7731;50.720;6.912;2023-02-17T06:36:46;100474.38;;;10.35;100.00
17072;BME280;7731;50.720;6.912;2023-02-17T06:39:18;100470.50;;;10.25;100.00
17072;BME280;7731;50.720;6.912;2023-02-17T06:41:49;100474.09;;;10.21;100.00
17072;BME280;7731;50.720;6.912;2023-02-17T06:44:19;100466.84;;;10.30;100.00
17072;BME280;7731;50.720;6.912;2023-02-17T06:46:49;100473.47;;;10.36;100.00
17072;BME280;7731;50.720;6.912;2023-02-17T06:49:19;100470.91;;;10.36;100.00
17072;BME280;7731;50.720;6.912;2023-02-17T06:51:49;100477.59;;;10.40;100.00
17072;BME280;7731;50.720;6.912;2023-02-17T06:54:23;100465.78;;;10.36;100.00
17072;BME280;7731;50.720;6.912;2023-02-17T06:56:53;100469.88;;;10.40;100.00
17072;BME280;7731;50.720;6.912;2023-02-17T06:59:23;100465.44;;;10.44;100.00
17072;BME280;7731;50.720;6.912;2023-02-17T07:01:53;100476.81;;;10.38;100.00
17072;BME280;7731;50.720;6.912;2023-02-17T07:04:24;100476.94;;;10.35;100.00
17072;BME280;7731;50.720;6.912;2023-02-17T07:06:54;100471.81;;;10.35;100.00
17072;BME280;7731;50.720;6.912;2023-02-17T07:09:27;100482.25;;;10.51;100.00
17072;BME280;7731;50.720;6.912;2023-02-17T07:12:00;100475.91;;;10.39;100.00
17072;BME280;7731;50.720;6.912;2023-02-17T07:14:32;100474.25;;;10.38;100.00
17072;BME280;7731;50.720;6.912;2023-02-17T07:17:03;100481.63;;;10.46;100.00
17072;BME280;7731;50.720;6.912;2023-02-17T07:19:33;100479.81;;;10.48;100.00
17072;BME280;7731;50.720;6.912;2023-02-17T07:22:03;100480.13;;;10.61;100.00
17072;BME280;7731;50.720;6.912;2023-02-17T07:24:36;100482.47;;;10.46;100.00
17072;BME280;7731;50.720;6.912;2023-02-17T07:27:06;100471.72;;;10.57;100.00
17072;BME280;7731;50.720;6.912;2023-02-17T07:29:37;100457.13;;;10.58;100.00
17072;BME280;7731;50.720;6.912;2023-02-17T07:32:10;100464.97;;;10.54;100.00
17072;BME280;7731;50.720;6.912;2023-02-17T07:34:40;100464.44;;;10.67;100.00
17072;BME280;7731;50.720;6.912;2023-02-17T07:37:10;100459.50;;;10.62;100.00
17072;BME280;7731;50.720;6.912;2023-02-17T07:39:43;100453.13;;;10.71;100.00
17072;BME280;7731;50.720;6.912;2023-02-17T07:42:13;100470.84;;;10.77;100.00
17072;BME280;7731;50.720;6.912;2023-02-17T07:44:43;100465.13;;;10.89;100.00
17072;BME280;7731;50.720;6.912;2023-02-17T07:47:13;100462.09;;;10.81;100.00
17072;BME280;7731;50.720;6.912;2023-02-17T07:49:44;100459.84;;;10.93;100.00
17072;BME280;7731;50.720;6.912;2023-02-17T07:52:16;100466.31;;;11.01;100.00
17072;BME280;7731;50.720;6.912;2023-02-17T07:54:51;100459.56;;;10.99;100.00
17072;BME280;7731;50.720;6.912;2023-02-17T07:57:21;100460.97;;;11.06;100.00
17072;BME280;7731;50.720;6.912;2023-02-17T07:59:52;100458.44;;;11.23;100.00
17072;BME280;7731;50.720;6.912;2023-02-17T08:02:22;100467.41;;;11.15;100.00
17072;BME280;7731;50.720;6.912;2023-02-17T08:04:52;100472.75;;;11.29;100.00
17072;BME280;7731;50.720;6.912;2023-02-17T08:07:22;100466.06;;;11.25;100.00
17072;BME280;7731;50.720;6.912;2023-02-17T08:09:55;100473.13;;;11.39;100.00
17072;BME280;7731;50.720;6.912;2023-02-17T08:12:37;100473.31;;;11.17;100.00
17072;BME280;7731;50.720;6.912;2023-02-17T08:15:20;100477.97;;;11.28;100.00
17072;BME280;7731;50.720;6.912;2023-02-17T08:17:50;100470.63;;;11.37;100.00
17072;BME280;7731;50.720;6.912;2023-02-17T08:20:21;100475.09;;;11.34;100.00
17072;BME280;7731;50.720;6.912;2023-02-17T08:22:51;100471.03;;;11.47;100.00
17072;BME280;7731;50.720;6.912;2023-02-17T08:25:24;100468.53;;;11.46;100.00
17072;BME280;7731;50.720;6.912;2023-02-17T08:27:54;100474.25;;;11.33;100.00
17072;BME280;7731;50.720;6.912;2023-02-17T08:30:24;100471.03;;;11.47;100.00
17072;BME280;7731;50.720;6.912;2023-02-17T08:32:57;100474.88;;;11.75;100.00
17072;BME280;7731;50.720;6.912;2023-02-17T08:35:27;100470.53;;;11.75;100.00
17072;BME280;7731;50.720;6.912;2023-02-17T08:37:57;100472.75;;;11.83;100.00
17072;BME280;7731;50.720;6.912;2023-02-17T08:40:30;100472.31;;;11.92;100.00
17072;BME280;7731;50.720;6.912;2023-02-17T08:43:00;100477.38;;;11.94;100.00
17072;BME280;7731;50.720;6.912;2023-02-17T08:45:30;100476.63;;;12.09;100.00
17072;BME280;7731;50.720;6.912;2023-02-17T08:48:04;100479.69;;;12.16;100.00
17072;BME280;7731;50.720;6.912;2023-02-17T08:50:34;100474.72;;;12.13;100.00
17072;BME280;7731;50.720;6.912;2023-02-17T08:53:04;100462.13;;;12.24;100.00
17072;BME280;7731;50.720;6.912;2023-02-17T08:55:37;100474.25;;;12.22;100.00
17072;BME280;7731;50.720;6.912;2023-02-17T08:58:15;100473.31;;;12.41;100.00
17072;BME280;7731;50.720;6.912;2023-02-17T09:00:48;100471.00;;;12.52;100.00
17072;BME280;7731;50.720;6.912;2023-02-17T09:03:19;100477.50;;;12.59;100.00
17072;BME280;7731;50.720;6.912;2023-02-17T09:05:52;100473.59;;;12.52;100.00
17072;BME280;7731;50.720;6.912;2023-02-17T09:08:25;100476.59;;;12.60;100.00
17072;BME280;7731;50.720;6.912;2023-02-17T09:10:58;100475.97;;;12.89;100.00
17072;BME280;7731;50.720;6.912;2023-02-17T09:13:28;100477.94;;;12.83;100.00
17072;BME280;7731;50.720;6.912;2023-02-17T09:15:58;100474.53;;;12.83;100.00
17072;BME280;7731;50.720;6.912;2023-02-17T09:18:29;100471.16;;;12.98;100.00
17072;BME280;7731;50.720;6.912;2023-02-17T09:21:04;100465.09;;;12.99;100.00
17072;BME280;7731;50.720;6.912;2023-02-17T09:23:35;100463.56;;;13.27;100.00
17072;BME280;7731;50.720;6.912;2023-02-17T09:26:11;100469.06;;;13.21;100.00
17072;BME280;7731;50.720;6.912;2023-02-17T09:28:42;100466.47;;;13.21;100.00
17072;BME280;7731;50.720;6.912;2023-02-17T09:31:19;100461.63;;;13.31;100.00
17072;BME280;7731;50.720;6.912;2023-02-17T09:33:51;100460.63;;;13.49;100.00
17072;BME280;7731;50.720;6.912;2023-02-17T09:36:30;100469.81;;;13.69;100.00
17072;BME280;7731;50.720;6.912;2023-02-17T09:39:01;100463.59;;;13.88;100.00
17072;BME280;7731;50.720;6.912;2023-02-17T09:41:41;100476.75;;;13.99;100.00
17072;BME280;7731;50.720;6.912;2023-02-17T09:44:21;100476.84;;;13.67;100.00
17072;BME280;7731;50.720;6.912;2023-02-17T09:47:03;100469.38;;;14.07;100.00
17072;BME280;7731;50.720;6.912;2023-02-17T09:49:40;100473.44;;;14.11;100.00
17072;BME280;7731;50.720;6.912;2023-02-17T09:52:17;100467.25;;;14.86;97.27
17072;BME280;7731;50.720;6.912;2023-02-17T09:55:00;100470.06;;;15.10;92.29
17072;BME280;7731;50.720;6.912;2023-02-17T09:57:44;100456.97;;;15.66;89.24
17072;BME280;7731;50.720;6.912;2023-02-17T10:00:22;100472.19;;;16.50;82.58
17072;BME280;7731;50.720;6.912;2023-02-17T10:03:01;100464.66;;;15.68;84.04
17072;BME280;7731;50.720;6.912;2023-02-17T10:05:41;100473.25;;;15.28;90.26
17072;BME280;7731;50.720;6.912;2023-02-17T10:08:18;100480.44;;;15.38;89.50
17072;BME280;7731;50.720;6.912;2023-02-17T10:10:56;100486.69;;;15.21;90.56
17072;BME280;7731;50.720;6.912;2023-02-17T10:13:34;100499.06;;;15.15;90.28
17072;BME280;7731;50.720;6.912;2023-02-17T10:16:14;100483.34;;;15.18;91.79
17072;BME280;7731;50.720;6.912;2023-02-17T10:18:58;100480.19;;;15.68;88.97
17072;BME280;7731;50.720;6.912;2023-02-17T10:21:38;100482.53;;;16.88;79.85
17072;BME280;7731;50.720;6.912;2023-02-17T10:24:11;100473.38;;;16.95;77.98
17072;BME280;7731;50.720;6.912;2023-02-17T10:26:55;100479.38;;;16.83;78.46
17072;BME280;7731;50.720;6.912;2023-02-17T10:29:48;100473.69;;;16.78;79.24
17072;BME280;7731;50.720;6.912;2023-02-17T10:32:22;100471.78;;;17.65;72.90
17072;BME280;7731;50.720;6.912;2023-02-17T10:35:12;100484.31;;;16.49;79.00
17072;BME280;7731;50.720;6.912;2023-02-17T10:37:47;100478.88;;;16.91;77.13
17072;BME280;7731;50.720;6.912;2023-02-17T10:40:22;100482.94;;;17.19;76.40
17072;BME280;7731;50.720;6.912;2023-02-17T10:42:57;100479.31;;;17.57;74.69
17072;BME280;7731;50.720;6.912;2023-02-17T10:45:39;100480.03;;;17.35;75.12
17072;BME280;7731;50.720;6.912;2023-02-17T10:48:17;100485.22;;;17.59;73.99
17072;BME280;7731;50.720;6.912;2023-02-17T10:50:49;100478.66;;;16.81;78.23
17072;BME280;7731;50.720;6.912;2023-02-17T10:53:29;100478.38;;;16.73;79.40
17072;BME280;7731;50.720;6.912;2023-02-17T10:56:06;100494.78;;;16.60;81.73
17072;BME280;7731;50.720;6.912;2023-02-17T10:58:51;100472.06;;;17.14;76.97
17072;BME280;7731;50.720;6.912;2023-02-17T11:01:27;100482.75;;;17.34;75.31
17072;BME280;7731;50.720;6.912;2023-02-17T11:04:01;100469.69;;;17.11;76.81
17072;BME280;7731;50.720;6.912;2023-02-17T11:06:41;100469.38;;;17.03;77.91
17072;BME280;7731;50.720;6.912;2023-02-17T11:09:23;100464.41;;;17.00;78.00
17072;BME280;7731;50.720;6.912;2023-02-17T11:12:02;100459.22;;;17.00;78.16
17072;BME280;7731;50.720;6.912;2023-02-17T11:14:37;100455.84;;;16.86;80.11
17072;BME280;7731;50.720;6.912;2023-02-17T11:17:22;100451.56;;;16.85;79.54
17072;BME280;7731;50.720;6.912;2023-02-17T11:20:03;100468.03;;;16.47;81.85
17072;BME280;7731;50.720;6.912;2023-02-17T11:22:37;100465.78;;;16.04;84.06
17072;BME280;7731;50.720;6.912;2023-02-17T11:25:21;100466.47;;;15.80;87.47
17072;BME280;7731;50.720;6.912;2023-02-17T11:27:55;100451.88;;;16.05;85.76
17072;BME280;7731;50.720;6.912;2023-02-17T11:30:29;100452.41;;;16.10;85.45
17072;BME280;7731;50.720;6.912;2023-02-17T11:33:13;100454.34;;;15.94;87.21
17072;BME280;7731;50.720;6.912;2023-02-17T11:35:51;100463.91;;;16.19;86.51
17072;BME280;7731;50.720;6.912;2023-02-17T11:38:24;100451.25;;;15.88;87.23
17072;BME280;7731;50.720;6.912;2023-02-17T11:40:59;100457.03;;;15.79;87.82
17072;BME280;7731;50.720;6.912;2023-02-17T11:43:30;100455.94;;;15.69;89.26
17072;BME280;7731;50.720;6.912;2023-02-17T11:46:18;100461.09;;;15.83;87.85
17072;BME280;7731;50.720;6.912;2023-02-17T11:49:36;100463.53;;;15.72;89.59
17072;BME280;7731;50.720;6.912;2023-02-17T11:52:27;100458.31;;;15.86;87.85
17072;BME280;7731;50.720;6.912;2023-02-17T11:55:18;100454.34;;;15.81;88.84
17072;BME280;7731;50.720;6.912;2023-02-17T11:58:16;100446.31;;;15.71;89.38
17072;BME280;7731;50.720;6.912;2023-02-17T12:01:00;100435.41;;;15.80;89.39
17072;BME280;7731;50.720;6.912;2023-02-17T12:04:17;100432.78;;;16.06;87.82
17072;BME280;7731;50.720;6.912;2023-02-17T12:07:35;100437.16;;;15.93;88.96
17072;BME280;7731;50.720;6.912;2023-02-17T12:10:23;100430.72;;;15.98;87.90
17072;BME280;7731;50.720;6.912;2023-02-17T12:13:14;100426.13;;;15.76;90.53
17072;BME280;7731;50.720;6.912;2023-02-17T12:16:26;100426.59;;;16.09;87.38
17072;BME280;7731;50.720;6.912;2023-02-17T12:19:39;100415.19;;;16.11;86.83
17072;BME280;7731;50.720;6.912;2023-02-17T12:22:23;100428.66;;;15.91;88.50
17072;BME280;7731;50.720;6.912;2023-02-17T12:25:17;100425.13;;;15.92;88.17
17072;BME280;7731;50.720;6.912;2023-02-17T12:28:08;100411.00;;;16.21;86.32
17072;BME280;7731;50.720;6.912;2023-02-17T12:31:17;100413.56;;;16.47;82.87
17072;BME280;7731;50.720;6.912;2023-02-17T12:33:58;100419.03;;;16.55;81.48
17072;BME280;7731;50.720;6.912;2023-02-17T12:36:37;100414.50;;;16.46;81.16
17072;BME280;7731;50.720;6.912;2023-02-17T12:39:17;100417.84;;;16.48;81.04
17072;BME280;7731;50.720;6.912;2023-02-17T12:41:54;100408.72;;;16.42;78.92
17072;BME280;7731;50.720;6.912;2023-02-17T12:44:31;100396.88;;;16.38;80.42
17072;BME280;7731;50.720;6.912;2023-02-17T12:47:11;100396.50;;;16.32;81.98
17072;BME280;7731;50.720;6.912;2023-02-17T12:49:51;100384.63;;;16.53;80.00
17072;BME280;7731;50.720;6.912;2023-02-17T12:52:27;100381.72;;;16.82;77.84
17072;BME280;7731;50.720;6.912;2023-02-17T12:55:12;100383.25;;;16.98;75.91
17072;BME280;7731;50.720;6.912;2023-02-17T12:57:50;100381.31;;;16.88;76.98
17072;BME280;7731;50.720;6.912;2023-02-17T13:00:32;100387.69;;;16.71;76.84
17072;BME280;7731;50.720;6.912;2023-02-17T13:03:05;100376.00;;;16.90;78.08
17072;BME280;7731;50.720;6.912;2023-02-17T13:05:45;100384.91;;;16.86;77.53
17072;BME280;7731;50.720;6.912;2023-02-17T13:08:22;100381.03;;;16.67;77.49
17072;BME280;7731;50.720;6.912;2023-02-17T13:11:05;100407.03;;;16.54;78.96
17072;BME280;7731;50.720;6.912;2023-02-17T13:13:36;100384.19;;;16.59;79.80
17072;BME280;7731;50.720;6.912;2023-02-17T13:16:09;100374.94;;;16.55;78.74
17072;BME280;7731;50.720;6.912;2023-02-17T13:18:43;100371.91;;;16.61;79.21
17072;BME280;7731;50.720;6.912;2023-02-17T13:21:26;100370.16;;;16.99;76.35
17072;BME280;7731;50.720;6.912;2023-02-17T13:24:03;100373.63;;;16.87;75.97
17072;BME280;7731;50.720;6.912;2023-02-17T13:26:39;100384.34;;;16.69;77.10
17072;BME280;7731;50.720;6.912;2023-02-17T13:29:31;100376.63;;;16.56;79.89
17072;BME280;7731;50.720;6.912;2023-02-17T13:32:05;100395.56;;;16.70;77.88
17072;BME280;7731;50.720;6.912;2023-02-17T13:34:39;100399.97;;;16.56;77.16
17072;BME280;7731;50.720;6.912;2023-02-17T13:37:23;100392.44;;;16.65;78.89
17072;BME280;7731;50.720;6.912;2023-02-17T13:40:24;100391.19;;;16.70;76.65